Terminal Aerodrome Forecast
Issued by NWS

Home | Current Version | Previous Version | Text Only | Print | Product List | Glossary Off
Versions: 1 2 3 4 5 6 7 8 9 10 11 12 13 14 15

000
FTUS43 KMPX 271213 AAA
TAFAXN
TAF AMD
KAXN 271213Z 2712/2812 VRB03KT P6SM BKN120
      TEMPO 2712/2714 3SM BR
     FM271600 06005KT P6SM FEW030 SCT120 BKN250
     FM272300 11004KT P6SM SCT250=

USA.gov is the U.S. government's official web portal to all federal, state and local government web resources and services.